sensor_id;sensor_type;location;lat;lon;timestamp;P1;durP1;ratioP1;P2;durP2;ratioP2
32705;SDS011;19094;50.972;3.538;2023-06-14T00:02:06;16.60;;;6.75;;
32705;SDS011;19094;50.972;3.538;2023-06-14T00:04:34;15.98;;;6.80;;
32705;SDS011;19094;50.972;3.538;2023-06-14T00:07:00;12.38;;;6.45;;
32705;SDS011;19094;50.972;3.538;2023-06-14T00:09:25;18.25;;;6.80;;
32705;SDS011;19094;50.972;3.538;2023-06-14T00:11:52;14.20;;;6.90;;
32705;SDS011;19094;50.972;3.538;2023-06-14T00:14:17;14.82;;;7.03;;
32705;SDS011;19094;50.972;3.538;2023-06-14T00:16:43;15.10;;;7.45;;
32705;SDS011;19094;50.972;3.538;2023-06-14T00:19:09;16.02;;;7.15;;
32705;SDS011;19094;50.972;3.538;2023-06-14T00:21:36;28.17;;;6.80;;
32705;SDS011;19094;50.972;3.538;2023-06-14T00:24:03;14.77;;;7.15;;
32705;SDS011;19094;50.972;3.538;2023-06-14T00:26:29;16.73;;;7.22;;
32705;SDS011;19094;50.972;3.538;2023-06-14T00:28:55;15.02;;;7.15;;
32705;SDS011;19094;50.972;3.538;2023-06-14T00:31:21;22.80;;;7.50;;
32705;SDS011;19094;50.972;3.538;2023-06-14T00:33:47;10.70;;;6.03;;
32705;SDS011;19094;50.972;3.538;2023-06-14T00:36:13;15.95;;;6.95;;
32705;SDS011;19094;50.972;3.538;2023-06-14T00:38:39;14.27;;;6.93;;
32705;SDS011;19094;50.972;3.538;2023-06-14T00:41:05;13.88;;;7.32;;
32705;SDS011;19094;50.972;3.538;2023-06-14T00:43:30;14.77;;;7.03;;
32705;SDS011;19094;50.972;3.538;2023-06-14T00:45:56;14.50;;;7.45;;
32705;SDS011;19094;50.972;3.538;2023-06-14T00:48:22;13.45;;;7.38;;
32705;SDS011;19094;50.972;3.538;2023-06-14T00:50:49;18.30;;;7.13;;
32705;SDS011;19094;50.972;3.538;2023-06-14T00:53:16;12.38;;;7.32;;
32705;SDS011;19094;50.972;3.538;2023-06-14T00:55:45;20.05;;;7.65;;
32705;SDS011;19094;50.972;3.538;2023-06-14T00:58:12;14.77;;;7.85;;
32705;SDS011;19094;50.972;3.538;2023-06-14T01:00:38;16.67;;;7.20;;
32705;SDS011;19094;50.972;3.538;2023-06-14T01:03:04;16.55;;;7.47;;
32705;SDS011;19094;50.972;3.538;2023-06-14T01:05:30;17.13;;;7.75;;
32705;SDS011;19094;50.972;3.538;2023-06-14T01:08:04;16.25;;;7.88;;
32705;SDS011;19094;50.972;3.538;2023-06-14T01:10:41;20.40;;;7.80;;
32705;SDS011;19094;50.972;3.538;2023-06-14T01:15:46;11.73;;;7.43;;
32705;SDS011;19094;50.972;3.538;2023-06-14T01:18:13;15.82;;;7.78;;
32705;SDS011;19094;50.972;3.538;2023-06-14T01:20:45;19.63;;;7.97;;
32705;SDS011;19094;50.972;3.538;2023-06-14T01:23:18;15.60;;;7.95;;
32705;SDS011;19094;50.972;3.538;2023-06-14T01:25:45;17.23;;;8.23;;
32705;SDS011;19094;50.972;3.538;2023-06-14T01:28:12;17.48;;;7.57;;
32705;SDS011;19094;50.972;3.538;2023-06-14T01:30:40;17.48;;;8.32;;
32705;SDS011;19094;50.972;3.538;2023-06-14T01:33:10;14.40;;;8.57;;
32705;SDS011;19094;50.972;3.538;2023-06-14T01:35:44;15.23;;;8.18;;
32705;SDS011;19094;50.972;3.538;2023-06-14T01:38:15;18.30;;;7.25;;
32705;SDS011;19094;50.972;3.538;2023-06-14T01:40:46;22.52;;;8.65;;
32705;SDS011;19094;50.972;3.538;2023-06-14T01:43:14;15.75;;;8.00;;
32705;SDS011;19094;50.972;3.538;2023-06-14T01:45:44;15.93;;;8.30;;
32705;SDS011;19094;50.972;3.538;2023-06-14T01:48:12;14.88;;;8.43;;
32705;SDS011;19094;50.972;3.538;2023-06-14T01:50:38;16.02;;;8.00;;
32705;SDS011;19094;50.972;3.538;2023-06-14T01:53:07;21.75;;;8.43;;
32705;SDS011;19094;50.972;3.538;2023-06-14T01:55:34;19.17;;;8.35;;
32705;SDS011;19094;50.972;3.538;2023-06-14T01:58:02;22.08;;;8.45;;
32705;SDS011;19094;50.972;3.538;2023-06-14T02:00:28;15.88;;;8.25;;
32705;SDS011;19094;50.972;3.538;2023-06-14T02:02:54;18.70;;;8.43;;
32705;SDS011;19094;50.972;3.538;2023-06-14T02:05:20;15.02;;;7.70;;
32705;SDS011;19094;50.972;3.538;2023-06-14T02:07:46;16.27;;;8.40;;
32705;SDS011;19094;50.972;3.538;2023-06-14T02:10:12;21.23;;;9.25;;
32705;SDS011;19094;50.972;3.538;2023-06-14T02:12:38;15.93;;;8.85;;
32705;SDS011;19094;50.972;3.538;2023-06-14T02:15:04;20.38;;;9.18;;
32705;SDS011;19094;50.972;3.538;2023-06-14T02:17:31;23.65;;;9.57;;
32705;SDS011;19094;50.972;3.538;2023-06-14T02:19:56;14.07;;;8.98;;
32705;SDS011;19094;50.972;3.538;2023-06-14T02:22:22;19.00;;;9.48;;
32705;SDS011;19094;50.972;3.538;2023-06-14T02:24:48;17.88;;;8.90;;
32705;SDS011;19094;50.972;3.538;2023-06-14T02:27:14;19.58;;;8.25;;
32705;SDS011;19094;50.972;3.538;2023-06-14T02:29:39;19.67;;;10.10;;
32705;SDS011;19094;50.972;3.538;2023-06-14T02:32:05;18.48;;;9.10;;
32705;SDS011;19094;50.972;3.538;2023-06-14T02:34:34;18.75;;;9.18;;
32705;SDS011;19094;50.972;3.538;2023-06-14T02:37:01;19.17;;;9.82;;
32705;SDS011;19094;50.972;3.538;2023-06-14T02:39:30;28.40;;;10.10;;
32705;SDS011;19094;50.972;3.538;2023-06-14T02:41:55;22.85;;;9.38;;
32705;SDS011;19094;50.972;3.538;2023-06-14T02:44:25;21.05;;;10.35;;
32705;SDS011;19094;50.972;3.538;2023-06-14T02:46:54;17.83;;;9.07;;
32705;SDS011;19094;50.972;3.538;2023-06-14T02:49:20;18.77;;;9.55;;
32705;SDS011;19094;50.972;3.538;2023-06-14T02:51:46;20.83;;;9.13;;
32705;SDS011;19094;50.972;3.538;2023-06-14T02:54:12;19.77;;;9.38;;
32705;SDS011;19094;50.972;3.538;2023-06-14T02:56:38;22.42;;;9.43;;
32705;SDS011;19094;50.972;3.538;2023-06-14T02:59:04;20.73;;;9.73;;
32705;SDS011;19094;50.972;3.538;2023-06-14T03:01:30;19.00;;;9.73;;
32705;SDS011;19094;50.972;3.538;2023-06-14T03:04:06;16.42;;;8.95;;
32705;SDS011;19094;50.972;3.538;2023-06-14T03:06:32;15.48;;;8.80;;
32705;SDS011;19094;50.972;3.538;2023-06-14T03:08:59;16.67;;;9.38;;
32705;SDS011;19094;50.972;3.538;2023-06-14T03:11:29;22.30;;;9.55;;
32705;SDS011;19094;50.972;3.538;2023-06-14T03:13:55;17.60;;;9.05;;
32705;SDS011;19094;50.972;3.538;2023-06-14T03:16:21;15.90;;;8.95;;
32705;SDS011;19094;50.972;3.538;2023-06-14T03:18:49;25.33;;;9.18;;
32705;SDS011;19094;50.972;3.538;2023-06-14T03:21:16;22.45;;;9.13;;
32705;SDS011;19094;50.972;3.538;2023-06-14T03:23:43;15.18;;;8.95;;
32705;SDS011;19094;50.972;3.538;2023-06-14T03:26:09;17.38;;;9.05;;
32705;SDS011;19094;50.972;3.538;2023-06-14T03:28:39;16.33;;;9.68;;
32705;SDS011;19094;50.972;3.538;2023-06-14T03:31:05;17.92;;;9.32;;
32705;SDS011;19094;50.972;3.538;2023-06-14T03:33:31;14.80;;;8.60;;
32705;SDS011;19094;50.972;3.538;2023-06-14T03:35:57;16.90;;;8.77;;
32705;SDS011;19094;50.972;3.538;2023-06-14T03:38:22;22.98;;;8.52;;
32705;SDS011;19094;50.972;3.538;2023-06-14T03:40:48;21.20;;;8.88;;
32705;SDS011;19094;50.972;3.538;2023-06-14T03:43:14;19.25;;;9.55;;
32705;SDS011;19094;50.972;3.538;2023-06-14T03:45:39;19.13;;;7.88;;
32705;SDS011;19094;50.972;3.538;2023-06-14T03:48:05;16.20;;;8.52;;
32705;SDS011;19094;50.972;3.538;2023-06-14T03:50:33;14.85;;;8.75;;
32705;SDS011;19094;50.972;3.538;2023-06-14T03:52:59;17.15;;;8.90;;
32705;SDS011;19094;50.972;3.538;2023-06-14T03:55:26;22.33;;;9.05;;
32705;SDS011;19094;50.972;3.538;2023-06-14T03:57:52;14.68;;;8.50;;
32705;SDS011;19094;50.972;3.538;2023-06-14T04:00:18;15.27;;;7.30;;
32705;SDS011;19094;50.972;3.538;2023-06-14T04:02:44;18.05;;;8.40;;
32705;SDS011;19094;50.972;3.538;2023-06-14T04:05:10;15.20;;;8.93;;
32705;SDS011;19094;50.972;3.538;2023-06-14T04:07:35;16.70;;;8.07;;
32705;SDS011;19094;50.972;3.538;2023-06-14T04:10:05;17.15;;;8.07;;
32705;SDS011;19094;50.972;3.538;2023-06-14T04:12:32;14.80;;;8.40;;
32705;SDS011;19094;50.972;3.538;2023-06-14T04:14:58;23.60;;;7.72;;
32705;SDS011;19094;50.972;3.538;2023-06-14T04:17:24;18.33;;;9.05;;
32705;SDS011;19094;50.972;3.538;2023-06-14T04:19:50;17.52;;;8.13;;
32705;SDS011;19094;50.972;3.538;2023-06-14T04:22:15;15.07;;;8.10;;
32705;SDS011;19094;50.972;3.538;2023-06-14T04:24:41;14.25;;;8.02;;
32705;SDS011;19094;50.972;3.538;2023-06-14T04:27:07;19.80;;;8.45;;
32705;SDS011;19094;50.972;3.538;2023-06-14T04:29:33;12.10;;;8.20;;
32705;SDS011;19094;50.972;3.538;2023-06-14T04:31:58;13.38;;;8.70;;
32705;SDS011;19094;50.972;3.538;2023-06-14T04:34:28;16.95;;;7.97;;
32705;SDS011;19094;50.972;3.538;2023-06-14T04:36:59;13.95;;;8.13;;
32705;SDS011;19094;50.972;3.538;2023-06-14T04:39:26;13.10;;;8.25;;
32705;SDS011;19094;50.972;3.538;2023-06-14T04:41:52;15.20;;;8.30;;
32705;SDS011;19094;50.972;3.538;2023-06-14T04:44:21;14.02;;;7.95;;
32705;SDS011;19094;50.972;3.538;2023-06-14T04:46:49;13.75;;;7.80;;
32705;SDS011;19094;50.972;3.538;2023-06-14T04:49:15;21.67;;;8.32;;
32705;SDS011;19094;50.972;3.538;2023-06-14T04:51:42;14.98;;;8.68;;
32705;SDS011;19094;50.972;3.538;2023-06-14T04:54:09;13.75;;;7.07;;
32705;SDS011;19094;50.972;3.538;2023-06-14T04:56:39;12.90;;;7.63;;
32705;SDS011;19094;50.972;3.538;2023-06-14T04:59:05;20.05;;;7.90;;
32705;SDS011;19094;50.972;3.538;2023-06-14T05:01:31;14.00;;;7.55;;
32705;SDS011;19094;50.972;3.538;2023-06-14T05:03:57;16.02;;;8.00;;
32705;SDS011;19094;50.972;3.538;2023-06-14T05:06:23;11.60;;;7.82;;
32705;SDS011;19094;50.972;3.538;2023-06-14T05:08:49;12.68;;;7.45;;
32705;SDS011;19094;50.972;3.538;2023-06-14T05:11:15;15.75;;;7.63;;
32705;SDS011;19094;50.972;3.538;2023-06-14T05:13:42;14.38;;;7.80;;
32705;SDS011;19094;50.972;3.538;2023-06-14T05:16:09;15.70;;;7.85;;
32705;SDS011;19094;50.972;3.538;2023-06-14T05:18:36;14.60;;;7.65;;
32705;SDS011;19094;50.972;3.538;2023-06-14T05:21:03;14.13;;;7.30;;
32705;SDS011;19094;50.972;3.538;2023-06-14T05:23:32;16.05;;;7.80;;
32705;SDS011;19094;50.972;3.538;2023-06-14T05:25:57;11.52;;;7.68;;
32705;SDS011;19094;50.972;3.538;2023-06-14T05:28:23;19.38;;;8.75;;
32705;SDS011;19094;50.972;3.538;2023-06-14T05:30:49;17.02;;;8.63;;
32705;SDS011;19094;50.972;3.538;2023-06-14T05:33:16;15.88;;;7.63;;
32705;SDS011;19094;50.972;3.538;2023-06-14T05:35:42;16.58;;;7.88;;
32705;SDS011;19094;50.972;3.538;2023-06-14T05:38:08;17.70;;;8.07;;
32705;SDS011;19094;50.972;3.538;2023-06-14T05:40:33;11.25;;;7.53;;
32705;SDS011;19094;50.972;3.538;2023-06-14T05:42:59;19.10;;;8.00;;
32705;SDS011;19094;50.972;3.538;2023-06-14T05:45:25;16.85;;;8.25;;
32705;SDS011;19094;50.972;3.538;2023-06-14T05:47:51;14.55;;;7.43;;
32705;SDS011;19094;50.972;3.538;2023-06-14T05:50:19;13.10;;;7.70;;
32705;SDS011;19094;50.972;3.538;2023-06-14T05:52:45;16.10;;;7.97;;
32705;SDS011;19094;50.972;3.538;2023-06-14T05:55:11;18.08;;;8.20;;
32705;SDS011;19094;50.972;3.538;2023-06-14T05:57:37;22.95;;;7.45;;
32705;SDS011;19094;50.972;3.538;2023-06-14T06:00:03;13.57;;;7.22;;
32705;SDS011;19094;50.972;3.538;2023-06-14T06:02:42;29.63;;;7.47;;
32705;SDS011;19094;50.972;3.538;2023-06-14T06:05:09;14.60;;;7.30;;
32705;SDS011;19094;50.972;3.538;2023-06-14T06:07:36;11.40;;;6.75;;
32705;SDS011;19094;50.972;3.538;2023-06-14T06:10:02;15.05;;;7.88;;
32705;SDS011;19094;50.972;3.538;2023-06-14T06:12:29;17.17;;;7.88;;
32705;SDS011;19094;50.972;3.538;2023-06-14T06:14:54;12.00;;;7.40;;
32705;SDS011;19094;50.972;3.538;2023-06-14T06:17:20;24.23;;;7.88;;
32705;SDS011;19094;50.972;3.538;2023-06-14T06:19:46;15.07;;;7.55;;
32705;SDS011;19094;50.972;3.538;2023-06-14T06:22:12;14.60;;;8.23;;
32705;SDS011;19094;50.972;3.538;2023-06-14T06:24:37;15.55;;;7.97;;
32705;SDS011;19094;50.972;3.538;2023-06-14T06:27:03;15.45;;;7.82;;
32705;SDS011;19094;50.972;3.538;2023-06-14T06:29:29;16.15;;;8.10;;
32705;SDS011;19094;50.972;3.538;2023-06-14T06:31:55;15.07;;;8.43;;
32705;SDS011;19094;50.972;3.538;2023-06-14T06:34:21;13.93;;;7.32;;
32705;SDS011;19094;50.972;3.538;2023-06-14T06:36:47;14.38;;;8.70;;
32705;SDS011;19094;50.972;3.538;2023-06-14T06:39:13;17.17;;;7.35;;
32705;SDS011;19094;50.972;3.538;2023-06-14T06:41:40;23.38;;;8.43;;
32705;SDS011;19094;50.972;3.538;2023-06-14T06:44:06;17.10;;;7.63;;
32705;SDS011;19094;50.972;3.538;2023-06-14T06:46:32;13.70;;;8.00;;
32705;SDS011;19094;50.972;3.538;2023-06-14T06:48:59;14.23;;;7.72;;
32705;SDS011;19094;50.972;3.538;2023-06-14T06:51:25;22.45;;;8.35;;
32705;SDS011;19094;50.972;3.538;2023-06-14T06:53:54;25.10;;;9.10;;
32705;SDS011;19094;50.972;3.538;2023-06-14T06:56:20;22.33;;;8.50;;
32705;SDS011;19094;50.972;3.538;2023-06-14T06:58:48;15.15;;;8.35;;
32705;SDS011;19094;50.972;3.538;2023-06-14T07:01:16;19.27;;;9.00;;
32705;SDS011;19094;50.972;3.538;2023-06-14T07:03:43;15.02;;;7.97;;
32705;SDS011;19094;50.972;3.538;2023-06-14T07:06:09;12.63;;;8.13;;
32705;SDS011;19094;50.972;3.538;2023-06-14T07:08:35;20.83;;;8.88;;
32705;SDS011;19094;50.972;3.538;2023-06-14T07:11:03;14.05;;;8.38;;
32705;SDS011;19094;50.972;3.538;2023-06-14T07:13:30;21.00;;;9.25;;
32705;SDS011;19094;50.972;3.538;2023-06-14T07:15:57;19.05;;;8.52;;
32705;SDS011;19094;50.972;3.538;2023-06-14T07:18:25;16.42;;;8.88;;
32705;SDS011;19094;50.972;3.538;2023-06-14T07:20:52;20.80;;;7.70;;
32705;SDS011;19094;50.972;3.538;2023-06-14T07:23:19;17.15;;;7.75;;
32705;SDS011;19094;50.972;3.538;2023-06-14T07:25:45;13.32;;;8.50;;
32705;SDS011;19094;50.972;3.538;2023-06-14T07:28:11;13.43;;;7.75;;
32705;SDS011;19094;50.972;3.538;2023-06-14T07:30:37;15.38;;;8.30;;
32705;SDS011;19094;50.972;3.538;2023-06-14T07:33:03;20.20;;;7.97;;
32705;SDS011;19094;50.972;3.538;2023-06-14T07:35:28;17.58;;;7.80;;
32705;SDS011;19094;50.972;3.538;2023-06-14T07:37:54;16.75;;;8.00;;
32705;SDS011;19094;50.972;3.538;2023-06-14T07:40:20;17.75;;;7.38;;
32705;SDS011;19094;50.972;3.538;2023-06-14T07:42:46;15.18;;;7.40;;
32705;SDS011;19094;50.972;3.538;2023-06-14T07:45:13;13.70;;;8.02;;
32705;SDS011;19094;50.972;3.538;2023-06-14T07:47:39;20.30;;;7.88;;
32705;SDS011;19094;50.972;3.538;2023-06-14T07:50:05;15.75;;;7.75;;
32705;SDS011;19094;50.972;3.538;2023-06-14T07:52:31;14.05;;;7.57;;
32705;SDS011;19094;50.972;3.538;2023-06-14T07:54:57;15.48;;;7.45;;
32705;SDS011;19094;50.972;3.538;2023-06-14T07:57:23;18.55;;;7.93;;
32705;SDS011;19094;50.972;3.538;2023-06-14T07:59:49;14.00;;;7.50;;
32705;SDS011;19094;50.972;3.538;2023-06-14T08:02:15;16.77;;;7.15;;
32705;SDS011;19094;50.972;3.538;2023-06-14T08:04:41;16.98;;;7.60;;
32705;SDS011;19094;50.972;3.538;2023-06-14T08:07:07;15.23;;;8.32;;
32705;SDS011;19094;50.972;3.538;2023-06-14T08:09:33;14.65;;;8.52;;
32705;SDS011;19094;50.972;3.538;2023-06-14T08:11:58;13.88;;;7.47;;
32705;SDS011;19094;50.972;3.538;2023-06-14T08:14:25;13.27;;;7.70;;
32705;SDS011;19094;50.972;3.538;2023-06-14T08:16:50;14.25;;;7.13;;
32705;SDS011;19094;50.972;3.538;2023-06-14T08:19:16;22.10;;;7.50;;
32705;SDS011;19094;50.972;3.538;2023-06-14T08:21:43;13.32;;;7.20;;
32705;SDS011;19094;50.972;3.538;2023-06-14T08:24:10;15.35;;;7.50;;
32705;SDS011;19094;50.972;3.538;2023-06-14T08:26:37;14.40;;;7.32;;
32705;SDS011;19094;50.972;3.538;2023-06-14T08:29:04;18.83;;;7.40;;
32705;SDS011;19094;50.972;3.538;2023-06-14T08:31:32;12.07;;;7.22;;
32705;SDS011;19094;50.972;3.538;2023-06-14T08:33:58;16.73;;;7.50;;
32705;SDS011;19094;50.972;3.538;2023-06-14T08:36:23;16.75;;;7.38;;
32705;SDS011;19094;50.972;3.538;2023-06-14T08:38:49;21.35;;;7.38;;
32705;SDS011;19094;50.972;3.538;2023-06-14T08:41:20;15.07;;;6.85;;
32705;SDS011;19094;50.972;3.538;2023-06-14T08:43:50;15.27;;;7.15;;
32705;SDS011;19094;50.972;3.538;2023-06-14T08:46:17;13.32;;;7.65;;
32705;SDS011;19094;50.972;3.538;2023-06-14T08:48:54;13.40;;;6.40;;
32705;SDS011;19094;50.972;3.538;2023-06-14T08:51:24;13.02;;;7.43;;
32705;SDS011;19094;50.972;3.538;2023-06-14T08:53:55;14.88;;;6.60;;
32705;SDS011;19094;50.972;3.538;2023-06-14T08:56:27;14.52;;;7.32;;
32705;SDS011;19094;50.972;3.538;2023-06-14T08:58:54;26.70;;;8.27;;
32705;SDS011;19094;50.972;3.538;2023-06-14T09:01:21;15.30;;;6.90;;
32705;SDS011;19094;50.972;3.538;2023-06-14T09:03:48;19.15;;;7.03;;
32705;SDS011;19094;50.972;3.538;2023-06-14T09:06:14;12.07;;;7.05;;
32705;SDS011;19094;50.972;3.538;2023-06-14T09:08:41;14.95;;;7.38;;
32705;SDS011;19094;50.972;3.538;2023-06-14T09:11:12;20.73;;;8.40;;
32705;SDS011;19094;50.972;3.538;2023-06-14T09:13:41;14.20;;;7.13;;
32705;SDS011;19094;50.972;3.538;2023-06-14T09:16:08;24.13;;;7.68;;
32705;SDS011;19094;50.972;3.538;2023-06-14T09:18:37;15.27;;;6.78;;
32705;SDS011;19094;50.972;3.538;2023-06-14T09:21:12;15.75;;;7.07;;
32705;SDS011;19094;50.972;3.538;2023-06-14T09:23:40;13.70;;;7.20;;
32705;SDS011;19094;50.972;3.538;2023-06-14T09:26:10;15.10;;;7.57;;
32705;SDS011;19094;50.972;3.538;2023-06-14T09:28:41;16.40;;;7.53;;
32705;SDS011;19094;50.972;3.538;2023-06-14T09:31:11;13.73;;;7.68;;
32705;SDS011;19094;50.972;3.538;2023-06-14T09:33:38;13.93;;;7.38;;
32705;SDS011;19094;50.972;3.538;2023-06-14T09:36:11;12.52;;;6.80;;
32705;SDS011;19094;50.972;3.538;2023-06-14T09:38:40;20.17;;;7.18;;
32705;SDS011;19094;50.972;3.538;2023-06-14T09:41:06;16.80;;;7.70;;
32705;SDS011;19094;50.972;3.538;2023-06-14T09:43:32;17.10;;;7.75;;
32705;SDS011;19094;50.972;3.538;2023-06-14T09:46:00;13.48;;;6.60;;
32705;SDS011;19094;50.972;3.538;2023-06-14T09:48:26;20.38;;;7.50;;
32705;SDS011;19094;50.972;3.538;2023-06-14T09:50:51;13.15;;;7.00;;
32705;SDS011;19094;50.972;3.538;2023-06-14T09:53:20;11.50;;;6.97;;
32705;SDS011;19094;50.972;3.538;2023-06-14T09:55:48;14.00;;;7.38;;
32705;SDS011;19094;50.972;3.538;2023-06-14T09:58:15;20.60;;;7.30;;
32705;SDS011;19094;50.972;3.538;2023-06-14T10:00:42;15.23;;;7.00;;
32705;SDS011;19094;50.972;3.538;2023-06-14T10:05:43;10.90;;;7.10;;
32705;SDS011;19094;50.972;3.538;2023-06-14T10:08:11;13.68;;;7.35;;
32705;SDS011;19094;50.972;3.538;2023-06-14T10:10:41;13.63;;;7.05;;
32705;SDS011;19094;50.972;3.538;2023-06-14T10:13:08;10.18;;;6.63;;
32705;SDS011;19094;50.972;3.538;2023-06-14T10:24:20;12.55;;;7.53;;
32705;SDS011;19094;50.972;3.538;2023-06-14T10:26:57;14.20;;;7.30;;
32705;SDS011;19094;50.972;3.538;2023-06-14T10:29:29;13.65;;;7.22;;
32705;SDS011;19094;50.972;3.538;2023-06-14T10:31:58;13.57;;;7.20;;
32705;SDS011;19094;50.972;3.538;2023-06-14T10:34:31;8.85;;;6.63;;
32705;SDS011;19094;50.972;3.538;2023-06-14T10:37:01;16.63;;;7.55;;
32705;SDS011;19094;50.972;3.538;2023-06-14T10:39:28;16.23;;;7.93;;
32705;SDS011;19094;50.972;3.538;2023-06-14T10:41:55;16.52;;;7.70;;
32705;SDS011;19094;50.972;3.538;2023-06-14T10:46:48;16.45;;;6.88;;
32705;SDS011;19094;50.972;3.538;2023-06-14T10:49:17;17.08;;;7.32;;
32705;SDS011;19094;50.972;3.538;2023-06-14T10:51:45;17.35;;;8.27;;
32705;SDS011;19094;50.972;3.538;2023-06-14T10:54:17;9.77;;;6.75;;
32705;SDS011;19094;50.972;3.538;2023-06-14T10:56:49;9.93;;;7.20;;
32705;SDS011;19094;50.972;3.538;2023-06-14T10:59:16;14.23;;;7.22;;
32705;SDS011;19094;50.972;3.538;2023-06-14T11:13:03;14.65;;;7.10;;
32705;SDS011;19094;50.972;3.538;2023-06-14T11:15:30;18.10;;;8.00;;
32705;SDS011;19094;50.972;3.538;2023-06-14T11:17:56;13.07;;;6.55;;
32705;SDS011;19094;50.972;3.538;2023-06-14T11:20:26;19.45;;;7.30;;
32705;SDS011;19094;50.972;3.538;2023-06-14T11:22:53;22.00;;;7.50;;
32705;SDS011;19094;50.972;3.538;2023-06-14T11:25:19;13.70;;;6.82;;
32705;SDS011;19094;50.972;3.538;2023-06-14T11:27:45;13.05;;;6.97;;
32705;SDS011;19094;50.972;3.538;2023-06-14T11:30:13;14.88;;;6.82;;
32705;SDS011;19094;50.972;3.538;2023-06-14T11:32:39;10.70;;;7.10;;
32705;SDS011;19094;50.972;3.538;2023-06-14T11:35:06;15.15;;;7.03;;
32705;SDS011;19094;50.972;3.538;2023-06-14T11:37:33;20.10;;;7.30;;
32705;SDS011;19094;50.972;3.538;2023-06-14T11:40:02;14.93;;;7.72;;
32705;SDS011;19094;50.972;3.538;2023-06-14T11:42:34;11.60;;;6.63;;
32705;SDS011;19094;50.972;3.538;2023-06-14T11:45:01;21.23;;;7.82;;
32705;SDS011;19094;50.972;3.538;2023-06-14T11:47:34;20.40;;;8.05;;
32705;SDS011;19094;50.972;3.538;2023-06-14T11:50:01;17.70;;;6.90;;
32705;SDS011;19094;50.972;3.538;2023-06-14T11:52:28;11.88;;;7.63;;
32705;SDS011;19094;50.972;3.538;2023-06-14T11:54:53;11.32;;;6.40;;
32705;SDS011;19094;50.972;3.538;2023-06-14T11:57:19;17.98;;;7.55;;
32705;SDS011;19094;50.972;3.538;2023-06-14T11:59:45;16.60;;;7.70;;
32705;SDS011;19094;50.972;3.538;2023-06-14T12:02:15;13.68;;;7.28;;
32705;SDS011;19094;50.972;3.538;2023-06-14T12:04:46;12.18;;;7.07;;
32705;SDS011;19094;50.972;3.538;2023-06-14T12:07:14;16.27;;;6.70;;
32705;SDS011;19094;50.972;3.538;2023-06-14T12:09:41;17.20;;;6.95;;
32705;SDS011;19094;50.972;3.538;2023-06-14T12:12:11;12.35;;;7.28;;
32705;SDS011;19094;50.972;3.538;2023-06-14T12:14:37;12.07;;;6.97;;
32705;SDS011;19094;50.972;3.538;2023-06-14T12:17:06;12.13;;;6.90;;
32705;SDS011;19094;50.972;3.538;2023-06-14T12:19:32;15.30;;;7.05;;
32705;SDS011;19094;50.972;3.538;2023-06-14T12:22:03;16.60;;;7.25;;
32705;SDS011;19094;50.972;3.538;2023-06-14T12:24:30;25.85;;;7.57;;
32705;SDS011;19094;50.972;3.538;2023-06-14T12:26:57;20.77;;;7.40;;
32705;SDS011;19094;50.972;3.538;2023-06-14T12:29:28;11.18;;;6.65;;
32705;SDS011;19094;50.972;3.538;2023-06-14T12:31:54;27.08;;;7.65;;
32705;SDS011;19094;50.972;3.538;2023-06-14T12:34:25;11.50;;;7.10;;
32705;SDS011;19094;50.972;3.538;2023-06-14T12:36:52;14.38;;;7.03;;
32705;SDS011;19094;50.972;3.538;2023-06-14T12:39:18;15.05;;;7.00;;
32705;SDS011;19094;50.972;3.538;2023-06-14T12:41:45;16.42;;;6.90;;
32705;SDS011;19094;50.972;3.538;2023-06-14T12:44:11;11.10;;;7.00;;
32705;SDS011;19094;50.972;3.538;2023-06-14T12:46:37;13.43;;;7.63;;
32705;SDS011;19094;50.972;3.538;2023-06-14T12:49:04;15.10;;;7.25;;
32705;SDS011;19094;50.972;3.538;2023-06-14T12:51:33;15.50;;;7.88;;
32705;SDS011;19094;50.972;3.538;2023-06-14T12:53:58;13.75;;;7.22;;
32705;SDS011;19094;50.972;3.538;2023-06-14T12:56:24;13.75;;;6.80;;
32705;SDS011;19094;50.972;3.538;2023-06-14T12:58:51;19.10;;;7.68;;
32705;SDS011;19094;50.972;3.538;2023-06-14T13:01:17;15.88;;;7.28;;
32705;SDS011;19094;50.972;3.538;2023-06-14T13:03:43;11.65;;;7.57;;
32705;SDS011;19094;50.972;3.538;2023-06-14T13:06:09;10.43;;;7.10;;
32705;SDS011;19094;50.972;3.538;2023-06-14T13:08:34;10.38;;;6.85;;
32705;SDS011;19094;50.972;3.538;2023-06-14T13:11:00;13.65;;;6.88;;
32705;SDS011;19094;50.972;3.538;2023-06-14T13:13:26;11.70;;;6.70;;
32705;SDS011;19094;50.972;3.538;2023-06-14T13:15:51;17.40;;;7.50;;
32705;SDS011;19094;50.972;3.538;2023-06-14T13:18:17;30.17;;;7.47;;
32705;SDS011;19094;50.972;3.538;2023-06-14T13:20:43;13.02;;;7.05;;
32705;SDS011;19094;50.972;3.538;2023-06-14T13:23:10;14.35;;;7.28;;
32705;SDS011;19094;50.972;3.538;2023-06-14T13:25:36;12.70;;;6.85;;
32705;SDS011;19094;50.972;3.538;2023-06-14T13:28:03;15.23;;;6.78;;
32705;SDS011;19094;50.972;3.538;2023-06-14T13:30:29;17.85;;;7.80;;
32705;SDS011;19094;50.972;3.538;2023-06-14T13:32:55;15.00;;;7.70;;
32705;SDS011;19094;50.972;3.538;2023-06-14T13:35:22;14.88;;;7.10;;
32705;SDS011;19094;50.972;3.538;2023-06-14T13:37:48;16.95;;;7.10;;
32705;SDS011;19094;50.972;3.538;2023-06-14T13:40:14;14.95;;;6.90;;
32705;SDS011;19094;50.972;3.538;2023-06-14T13:42:40;21.77;;;7.97;;
32705;SDS011;19094;50.972;3.538;2023-06-14T13:45:07;22.83;;;6.85;;
32705;SDS011;19094;50.972;3.538;2023-06-14T13:47:33;16.55;;;7.47;;
32705;SDS011;19094;50.972;3.538;2023-06-14T13:49:59;17.23;;;7.28;;
32705;SDS011;19094;50.972;3.538;2023-06-14T13:52:25;16.50;;;7.25;;
32705;SDS011;19094;50.972;3.538;2023-06-14T13:54:51;16.13;;;7.20;;
32705;SDS011;19094;50.972;3.538;2023-06-14T13:57:17;10.80;;;6.70;;
32705;SDS011;19094;50.972;3.538;2023-06-14T13:59:43;13.98;;;7.15;;
32705;SDS011;19094;50.972;3.538;2023-06-14T14:02:10;13.02;;;7.32;;
32705;SDS011;19094;50.972;3.538;2023-06-14T14:04:36;17.15;;;7.03;;
32705;SDS011;19094;50.972;3.538;2023-06-14T14:07:02;21.88;;;6.72;;
32705;SDS011;19094;50.972;3.538;2023-06-14T14:09:29;10.07;;;6.55;;
32705;SDS011;19094;50.972;3.538;2023-06-14T14:11:55;12.60;;;6.50;;
32705;SDS011;19094;50.972;3.538;2023-06-14T14:14:21;13.00;;;7.07;;
32705;SDS011;19094;50.972;3.538;2023-06-14T14:16:48;15.32;;;6.65;;
32705;SDS011;19094;50.972;3.538;2023-06-14T14:19:16;15.13;;;6.90;;
32705;SDS011;19094;50.972;3.538;2023-06-14T14:21:44;14.68;;;6.43;;
32705;SDS011;19094;50.972;3.538;2023-06-14T14:24:10;15.32;;;6.70;;
32705;SDS011;19094;50.972;3.538;2023-06-14T14:26:36;9.38;;;5.78;;
32705;SDS011;19094;50.972;3.538;2023-06-14T14:29:01;13.07;;;6.28;;
32705;SDS011;19094;50.972;3.538;2023-06-14T14:31:30;11.27;;;6.60;;
32705;SDS011;19094;50.972;3.538;2023-06-14T14:33:55;11.13;;;6.35;;
32705;SDS011;19094;50.972;3.538;2023-06-14T14:36:21;12.05;;;6.57;;
32705;SDS011;19094;50.972;3.538;2023-06-14T14:38:47;11.15;;;6.32;;
32705;SDS011;19094;50.972;3.538;2023-06-14T14:41:13;9.90;;;5.95;;
32705;SDS011;19094;50.972;3.538;2023-06-14T14:43:38;12.40;;;6.18;;
32705;SDS011;19094;50.972;3.538;2023-06-14T14:46:04;13.60;;;6.20;;
32705;SDS011;19094;50.972;3.538;2023-06-14T14:48:30;11.13;;;5.82;;
32705;SDS011;19094;50.972;3.538;2023-06-14T14:50:56;15.65;;;5.70;;
32705;SDS011;19094;50.972;3.538;2023-06-14T14:53:22;8.60;;;5.70;;
32705;SDS011;19094;50.972;3.538;2023-06-14T14:55:48;14.18;;;6.72;;
32705;SDS011;19094;50.972;3.538;2023-06-14T14:58:14;13.98;;;5.75;;
32705;SDS011;19094;50.972;3.538;2023-06-14T15:00:43;9.23;;;5.70;;
32705;SDS011;19094;50.972;3.538;2023-06-14T15:03:10;12.85;;;4.95;;